Time;durP1;ratioP1;P1;durP2;ratioP2;P2;SDS_P1;SDS_P2;PMS_P1;PMS_P2;Temp;Humidity;BMP_temperature;BMP_pressure;BME280_temperature;BME280_humidity;BME280_pressure;Samples;Min_cycle;Max_cycle;Signal;HPM_P1;HPM_P2
2023/08/13 00:01:02;;;;;;;10.57;2.50;;;;;;;;;;5011889;28;98264;-70
2023/08/13 00:03:29;;;;;;;12.45;3.13;;;;;;;;;;5008003;28;99579;-70
2023/08/13 00:05:55;;;;;;;8.88;2.53;;;;;;;;;;4993349;28;99007;-71
2023/08/13 00:08:22;;;;;;;12.80;3.88;;;;;;;;;;4991703;28;99114;-70
2023/08/13 00:10:48;;;;;;;7.32;2.58;;;;;;;;;;4991021;28;98857;-70
2023/08/13 00:13:16;;;;;;;10.20;2.55;;;;;;;;;;4991568;28;98354;-71
2023/08/13 00:15:42;;;;;;;17.30;3.40;;;;;;;;;;4992817;28;98510;-70
2023/08/13 00:18:10;;;;;;;12.88;2.80;;;;;;;;;;4991603;28;100860;-69
2023/08/13 00:20:36;;;;;;;8.98;2.67;;;;;;;;;;4992383;28;98278;-71
2023/08/13 00:23:03;;;;;;;9.73;2.78;;;;;;;;;;4993518;28;98543;-71
2023/08/13 00:25:30;;;;;;;8.02;2.50;;;;;;;;;;4991055;28;99912;-71
2023/08/13 00:27:56;;;;;;;10.32;2.55;;;;;;;;;;4995341;28;98698;-69
2023/08/13 00:30:22;;;;;;;9.23;2.40;;;;;;;;;;4990771;28;98669;-69
2023/08/13 00:32:49;;;;;;;9.63;2.78;;;;;;;;;;4991221;28;98266;-72
2023/08/13 00:35:15;;;;;;;13.13;2.60;;;;;;;;;;4991787;28;98299;-70
2023/08/13 00:37:42;;;;;;;7.10;2.42;;;;;;;;;;4991642;28;99000;-70
2023/08/13 00:40:10;;;;;;;5.57;2.38;;;;;;;;;;4991849;28;98669;-70
2023/08/13 00:42:36;;;;;;;9.32;2.90;;;;;;;;;;4991898;28;98290;-72
2023/08/13 00:45:03;;;;;;;13.75;2.95;;;;;;;;;;4991877;28;98979;-71
2023/08/13 00:47:30;;;;;;;7.07;2.20;;;;;;;;;;4989785;28;98261;-71
2023/08/13 00:49:57;;;;;;;9.18;2.20;;;;;;;;;;4993753;28;99702;-70
2023/08/13 00:52:23;;;;;;;5.85;2.42;;;;;;;;;;4992038;28;98293;-70
2023/08/13 00:54:51;;;;;;;9.80;2.28;;;;;;;;;;5008535;28;101444;-70
2023/08/13 00:57:18;;;;;;;8.57;2.17;;;;;;;;;;5010233;28;98794;-71
2023/08/13 00:59:44;;;;;;;10.60;2.35;;;;;;;;;;5003331;28;98258;-71
2023/08/13 01:02:11;;;;;;;4.97;1.88;;;;;;;;;;4989659;28;99576;-71
2023/08/13 01:04:38;;;;;;;9.65;2.20;;;;;;;;;;4991291;28;99108;-69
2023/08/13 01:07:13;;;;;;;9.60;2.75;;;;;;;;;;4990827;28;98204;-71
2023/08/13 01:09:46;;;;;;;9.40;2.47;;;;;;;;;;4989589;28;100635;-71
2023/08/13 01:12:25;;;;;;;14.77;2.83;;;;;;;;;;4994461;28;97963;-71
2023/08/13 01:15:11;;;;;;;12.95;2.63;;;;;;;;;;4991631;28;98433;-70
2023/08/13 01:17:37;;;;;;;14.77;2.08;;;;;;;;;;4991379;28;98921;-70
2023/08/13 01:20:05;;;;;;;11.23;3.17;;;;;;;;;;4989456;28;98304;-71
2023/08/13 01:22:35;;;;;;;3.72;1.60;;;;;;;;;;4993735;28;98234;-71
2023/08/13 01:25:02;;;;;;;9.70;2.25;;;;;;;;;;5009321;28;99010;-71
2023/08/13 01:27:37;;;;;;;8.55;2.55;;;;;;;;;;5009251;28;98211;-70
2023/08/13 01:30:08;;;;;;;6.32;2.13;;;;;;;;;;5008413;28;100306;-70
2023/08/13 01:32:39;;;;;;;7.28;2.30;;;;;;;;;;5013114;28;98796;-69
2023/08/13 01:35:07;;;;;;;7.55;2.25;;;;;;;;;;5011178;28;98340;-71
2023/08/13 01:37:34;;;;;;;16.60;2.88;;;;;;;;;;5010127;28;98767;-71
2023/08/13 01:40:00;;;;;;;10.27;2.47;;;;;;;;;;5011171;28;98446;-71
2023/08/13 01:42:27;;;;;;;11.10;3.55;;;;;;;;;;5009763;28;99503;-71
2023/08/13 01:44:53;;;;;;;10.77;2.75;;;;;;;;;;5010111;28;98760;-70
2023/08/13 01:47:20;;;;;;;8.10;2.22;;;;;;;;;;5009322;28;98011;-71
2023/08/13 01:49:46;;;;;;;11.55;2.97;;;;;;;;;;5009852;28;98819;-71
2023/08/13 01:52:13;;;;;;;10.50;2.30;;;;;;;;;;5008874;28;101712;-71
2023/08/13 01:54:39;;;;;;;9.10;2.47;;;;;;;;;;5012402;28;98859;-71
2023/08/13 01:57:06;;;;;;;8.68;2.40;;;;;;;;;;5009429;28;100044;-71
2023/08/13 01:59:32;;;;;;;10.90;3.75;;;;;;;;;;5004534;28;98251;-71
2023/08/13 02:01:59;;;;;;;7.05;2.42;;;;;;;;;;4989408;28;101114;-71
2023/08/13 02:04:25;;;;;;;11.60;2.10;;;;;;;;;;4989158;28;99303;-70
2023/08/13 02:06:52;;;;;;;8.32;2.45;;;;;;;;;;4990789;28;98177;-71
2023/08/13 02:09:18;;;;;;;9.93;1.98;;;;;;;;;;4988851;28;98483;-71
2023/08/13 02:11:44;;;;;;;6.32;2.70;;;;;;;;;;4989235;28;99951;-70
2023/08/13 02:14:11;;;;;;;13.50;3.08;;;;;;;;;;4989981;28;98671;-70
2023/08/13 02:16:37;;;;;;;10.05;3.03;;;;;;;;;;4992332;28;98751;-70
2023/08/13 02:19:04;;;;;;;12.35;3.00;;;;;;;;;;4991097;28;98364;-71
2023/08/13 02:21:31;;;;;;;8.90;2.65;;;;;;;;;;5010426;28;98310;-70
2023/08/13 02:23:57;;;;;;;6.10;2.53;;;;;;;;;;5009457;28;98996;-70
2023/08/13 02:26:24;;;;;;;7.05;2.20;;;;;;;;;;5009476;28;98177;-72
2023/08/13 02:28:50;;;;;;;7.22;2.63;;;;;;;;;;5010188;28;98408;-70
2023/08/13 02:31:17;;;;;;;6.28;2.20;;;;;;;;;;5009177;28;98784;-71
2023/08/13 02:33:43;;;;;;;10.45;3.22;;;;;;;;;;5007148;28;98373;-70
2023/08/13 02:36:10;;;;;;;7.20;2.35;;;;;;;;;;5008877;28;100281;-70
2023/08/13 02:38:36;;;;;;;8.70;3.88;;;;;;;;;;5012144;28;98938;-70
2023/08/13 02:41:03;;;;;;;11.05;2.97;;;;;;;;;;5007835;28;101209;-70
2023/08/13 02:43:47;;;;;;;14.73;2.72;;;;;;;;;;5009572;28;98852;-70
2023/08/13 02:46:14;;;;;;;7.82;2.92;;;;;;;;;;5009280;28;98000;-72
2023/08/13 02:48:40;;;;;;;7.28;2.50;;;;;;;;;;4999380;28;99006;-70
2023/08/13 02:51:07;;;;;;;16.65;2.88;;;;;;;;;;5002640;28;99077;-70
2023/08/13 02:53:33;;;;;;;10.02;2.83;;;;;;;;;;5008808;28;98215;-71
2023/08/13 02:55:59;;;;;;;4.30;2.33;;;;;;;;;;5008431;28;100989;-70
2023/08/13 02:58:26;;;;;;;6.15;2.28;;;;;;;;;;5006030;28;101525;-70
2023/08/13 03:00:52;;;;;;;14.88;3.50;;;;;;;;;;4999982;28;98451;-70
2023/08/13 03:03:19;;;;;;;7.90;3.83;;;;;;;;;;4987990;28;101794;-70
2023/08/13 03:05:45;;;;;;;14.55;2.47;;;;;;;;;;4989398;28;98386;-69
2023/08/13 03:08:12;;;;;;;12.57;2.85;;;;;;;;;;4988731;28;98570;-70
2023/08/13 03:10:38;;;;;;;10.52;2.63;;;;;;;;;;4989236;28;99192;-71
2023/08/13 03:13:05;;;;;;;10.65;2.53;;;;;;;;;;4988179;28;98272;-71
2023/08/13 03:15:32;;;;;;;7.65;2.60;;;;;;;;;;4987584;28;101399;-70
2023/08/13 03:17:59;;;;;;;9.68;3.38;;;;;;;;;;4994859;28;98835;-70
2023/08/13 03:20:27;;;;;;;10.55;2.55;;;;;;;;;;5009940;28;99889;-70
2023/08/13 03:22:54;;;;;;;9.10;2.42;;;;;;;;;;5006548;28;101362;-70
2023/08/13 03:25:21;;;;;;;10.38;2.70;;;;;;;;;;5007008;28;97946;-70
2023/08/13 03:27:48;;;;;;;10.38;2.35;;;;;;;;;;5008321;28;98360;-70
2023/08/13 03:30:16;;;;;;;8.57;2.40;;;;;;;;;;5006199;28;101600;-70
2023/08/13 03:32:43;;;;;;;10.57;2.97;;;;;;;;;;5008926;28;98187;-70
2023/08/13 03:35:13;;;;;;;5.18;2.47;;;;;;;;;;5006693;28;99524;-70
2023/08/13 03:37:40;;;;;;;6.28;2.47;;;;;;;;;;5008941;28;98719;-70
2023/08/13 03:40:08;;;;;;;16.30;3.55;;;;;;;;;;5007533;28;98249;-69
2023/08/13 03:42:35;;;;;;;9.35;2.65;;;;;;;;;;5010516;28;99003;-70
2023/08/13 03:45:01;;;;;;;10.75;2.88;;;;;;;;;;5007578;28;98181;-70
2023/08/13 03:47:28;;;;;;;9.00;2.13;;;;;;;;;;5004739;28;99489;-71
2023/08/13 03:49:54;;;;;;;12.05;2.90;;;;;;;;;;4988417;28;99283;-70
2023/08/13 03:52:22;;;;;;;12.20;2.90;;;;;;;;;;4987842;28;98282;-70
2023/08/13 03:54:48;;;;;;;10.00;2.70;;;;;;;;;;4988103;28;98763;-70
2023/08/13 03:57:15;;;;;;;7.22;2.80;;;;;;;;;;4986205;28;101770;-70
2023/08/13 03:59:42;;;;;;;14.02;3.05;;;;;;;;;;4987368;28;98362;-70
2023/08/13 04:02:08;;;;;;;8.60;3.00;;;;;;;;;;4987132;28;101121;-70
2023/08/13 04:04:35;;;;;;;15.23;3.17;;;;;;;;;;4991402;28;98710;-70
2023/08/13 04:07:03;;;;;;;11.60;2.33;;;;;;;;;;4987314;28;99381;-71
2023/08/13 04:09:29;;;;;;;10.23;2.78;;;;;;;;;;4986396;28;98820;-71
2023/08/13 04:11:56;;;;;;;16.30;2.97;;;;;;;;;;4985784;28;98479;-70
2023/08/13 04:14:22;;;;;;;12.63;2.78;;;;;;;;;;4988571;28;99006;-70
2023/08/13 04:16:49;;;;;;;12.27;3.00;;;;;;;;;;4987310;28;101433;-71
2023/08/13 04:19:16;;;;;;;14.00;4.03;;;;;;;;;;4986694;28;98970;-70
2023/08/13 04:21:42;;;;;;;11.18;2.58;;;;;;;;;;4989806;28;98554;-71
2023/08/13 04:24:10;;;;;;;8.85;2.35;;;;;;;;;;4986720;28;99863;-71
2023/08/13 04:26:37;;;;;;;12.23;2.47;;;;;;;;;;4990718;28;98428;-71
2023/08/13 04:29:05;;;;;;;9.93;2.70;;;;;;;;;;4986974;28;101570;-70
2023/08/13 04:31:32;;;;;;;12.55;2.85;;;;;;;;;;4986012;28;98298;-71
2023/08/13 04:33:59;;;;;;;6.05;2.70;;;;;;;;;;4988530;28;98266;-71
2023/08/13 04:36:25;;;;;;;14.30;2.75;;;;;;;;;;4985465;28;101462;-71
2023/08/13 04:38:53;;;;;;;8.63;2.70;;;;;;;;;;4990026;28;98593;-71
2023/08/13 04:41:22;;;;;;;12.57;3.20;;;;;;;;;;4989998;28;99487;-71
2023/08/13 04:43:48;;;;;;;7.03;2.65;;;;;;;;;;4991330;28;98844;-69
2023/08/13 04:46:15;;;;;;;14.50;3.67;;;;;;;;;;4985296;28;98982;-70
2023/08/13 04:48:50;;;;;;;11.23;2.80;;;;;;;;;;4984239;28;99607;-71
2023/08/13 04:51:22;;;;;;;9.65;2.15;;;;;;;;;;4990233;28;98314;-71
2023/08/13 04:53:49;;;;;;;7.95;2.47;;;;;;;;;;4975220;28;98453;-70
2023/08/13 04:56:17;;;;;;;13.60;2.67;;;;;;;;;;5003904;28;98688;-71
2023/08/13 04:58:44;;;;;;;7.82;3.00;;;;;;;;;;4971697;28;98144;-71
2023/08/13 05:01:11;;;;;;;12.35;3.10;;;;;;;;;;4972986;28;100507;-70
2023/08/13 05:03:40;;;;;;;13.23;2.78;;;;;;;;;;4989861;28;99898;-69
2023/08/13 05:06:07;;;;;;;8.45;2.55;;;;;;;;;;4989899;28;98223;-71
2023/08/13 05:08:33;;;;;;;6.93;2.05;;;;;;;;;;4988454;28;100690;-71
2023/08/13 05:11:00;;;;;;;10.20;3.00;;;;;;;;;;4992949;28;99970;-70
2023/08/13 05:13:27;;;;;;;11.23;2.30;;;;;;;;;;4991115;28;98638;-70
2023/08/13 05:15:53;;;;;;;7.05;2.38;;;;;;;;;;4990136;28;99080;-71
2023/08/13 05:18:20;;;;;;;8.77;2.42;;;;;;;;;;4977569;28;98218;-71
2023/08/13 05:20:47;;;;;;;8.55;2.45;;;;;;;;;;4970666;28;100085;-71
2023/08/13 05:23:13;;;;;;;5.63;2.50;;;;;;;;;;4981304;28;98967;-70
2023/08/13 05:25:40;;;;;;;11.43;2.47;;;;;;;;;;4987401;28;98159;-71
2023/08/13 05:28:08;;;;;;;9.32;3.67;;;;;;;;;;4989096;28;100878;-71
2023/08/13 05:30:36;;;;;;;8.23;2.20;;;;;;;;;;5004756;28;98893;-70
2023/08/13 05:33:03;;;;;;;9.65;3.15;;;;;;;;;;5009136;28;100691;-70
2023/08/13 05:35:30;;;;;;;7.47;2.22;;;;;;;;;;5008126;28;101330;-70
2023/08/13 05:37:57;;;;;;;6.00;2.05;;;;;;;;;;5009210;28;98224;-71
2023/08/13 05:40:23;;;;;;;10.65;2.50;;;;;;;;;;5010523;28;98394;-70
2023/08/13 05:42:50;;;;;;;6.55;2.03;;;;;;;;;;5008699;28;100026;-70
2023/08/13 05:45:17;;;;;;;11.07;2.42;;;;;;;;;;5008985;28;98237;-70
2023/08/13 05:47:44;;;;;;;11.10;2.50;;;;;;;;;;5008625;28;98479;-70
2023/08/13 05:50:11;;;;;;;11.25;2.58;;;;;;;;;;5006636;28;101577;-70
2023/08/13 05:52:39;;;;;;;9.88;2.80;;;;;;;;;;4998385;28;99605;-70
2023/08/13 05:55:06;;;;;;;6.03;1.70;;;;;;;;;;4990898;28;99975;-71
2023/08/13 05:57:32;;;;;;;10.80;2.15;;;;;;;;;;4989950;28;98355;-70
2023/08/13 05:59:59;;;;;;;9.75;2.47;;;;;;;;;;4990408;28;98676;-70
2023/08/13 06:02:26;;;;;;;10.98;2.47;;;;;;;;;;4971508;28;98857;-70
2023/08/13 06:04:52;;;;;;;9.60;2.22;;;;;;;;;;4985718;28;98215;-70
2023/08/13 06:07:19;;;;;;;9.85;2.10;;;;;;;;;;4990478;28;98653;-71
2023/08/13 06:09:45;;;;;;;9.23;2.60;;;;;;;;;;4988920;28;99362;-71
2023/08/13 06:12:12;;;;;;;15.10;2.83;;;;;;;;;;4990088;28;98169;-71
2023/08/13 06:14:39;;;;;;;5.47;2.08;;;;;;;;;;4992311;28;99481;-71
2023/08/13 06:17:05;;;;;;;15.70;2.78;;;;;;;;;;4989659;28;98178;-71
2023/08/13 06:19:42;;;;;;;9.80;2.45;;;;;;;;;;4990426;28;98754;-71
2023/08/13 06:22:09;;;;;;;7.90;1.90;;;;;;;;;;4990691;28;99013;-71
2023/08/13 06:24:36;;;;;;;11.45;2.63;;;;;;;;;;4989454;28;98233;-70
2023/08/13 06:27:02;;;;;;;12.30;3.33;;;;;;;;;;4990506;28;98885;-69
2023/08/13 06:29:28;;;;;;;7.43;2.03;;;;;;;;;;4989483;28;98980;-70
2023/08/13 06:31:55;;;;;;;8.98;2.05;;;;;;;;;;4988860;28;98473;-70
2023/08/13 06:34:21;;;;;;;5.68;1.60;;;;;;;;;;4997259;28;98581;-70
2023/08/13 06:36:48;;;;;;;9.32;2.53;;;;;;;;;;4990581;28;100000;-70
2023/08/13 06:39:14;;;;;;;9.13;2.10;;;;;;;;;;4986191;28;98732;-71
2023/08/13 06:41:41;;;;;;;6.90;1.77;;;;;;;;;;4971642;28;98876;-71
2023/08/13 06:44:15;;;;;;;7.90;2.33;;;;;;;;;;4969845;28;99902;-70
2023/08/13 06:46:41;;;;;;;6.60;2.10;;;;;;;;;;4978955;28;98810;-70
2023/08/13 06:49:08;;;;;;;6.47;2.10;;;;;;;;;;4969201;28;99072;-69
2023/08/13 06:51:34;;;;;;;11.35;2.47;;;;;;;;;;4970669;28;99427;-70
2023/08/13 06:54:01;;;;;;;9.68;2.03;;;;;;;;;;4968428;28;98923;-71
2023/08/13 06:56:27;;;;;;;4.63;1.92;;;;;;;;;;4974585;28;98972;-69
2023/08/13 06:58:54;;;;;;;10.25;2.45;;;;;;;;;;4974743;28;99894;-69
2023/08/13 07:01:20;;;;;;;8.10;2.00;;;;;;;;;;4973638;28;100662;-70
2023/08/13 07:03:47;;;;;;;6.85;1.90;;;;;;;;;;4974248;28;99956;-70
2023/08/13 07:06:14;;;;;;;7.78;1.92;;;;;;;;;;4976231;28;98498;-70
2023/08/13 07:08:40;;;;;;;11.85;2.25;;;;;;;;;;4977278;28;100196;-69
2023/08/13 07:11:07;;;;;;;5.95;1.70;;;;;;;;;;4973211;28;98349;-72
2023/08/13 07:13:33;;;;;;;5.13;1.95;;;;;;;;;;4968573;28;99518;-71
2023/08/13 07:15:59;;;;;;;6.72;1.90;;;;;;;;;;4969620;28;98907;-70
2023/08/13 07:18:26;;;;;;;6.05;2.13;;;;;;;;;;4970197;28;98915;-69
2023/08/13 07:20:52;;;;;;;8.93;2.67;;;;;;;;;;4972270;28;99628;-70
2023/08/13 07:23:19;;;;;;;5.60;1.77;;;;;;;;;;4982559;28;98563;-70
2023/08/13 07:25:46;;;;;;;8.48;2.22;;;;;;;;;;4989548;28;99422;-70
2023/08/13 07:28:12;;;;;;;4.82;2.00;;;;;;;;;;4987650;28;99960;-70
2023/08/13 07:30:39;;;;;;;5.28;1.98;;;;;;;;;;4988888;28;98282;-70
2023/08/13 07:33:05;;;;;;;6.55;1.27;;;;;;;;;;4988922;28;99594;-72
2023/08/13 07:35:32;;;;;;;5.22;1.95;;;;;;;;;;4987847;28;99130;-72
2023/08/13 07:37:58;;;;;;;5.93;1.77;;;;;;;;;;4987105;28;99072;-72
2023/08/13 07:40:25;;;;;;;3.92;1.52;;;;;;;;;;4991738;28;98498;-71
2023/08/13 07:42:51;;;;;;;5.55;1.40;;;;;;;;;;4988204;28;98202;-71
2023/08/13 07:45:17;;;;;;;4.70;1.67;;;;;;;;;;4985829;28;98712;-70
2023/08/13 07:47:44;;;;;;;3.78;1.42;;;;;;;;;;4973187;28;98956;-71
2023/08/13 07:50:11;;;;;;;3.35;1.67;;;;;;;;;;4968503;28;98333;-71
2023/08/13 07:52:38;;;;;;;7.65;1.83;;;;;;;;;;4968726;28;99448;-71
2023/08/13 07:55:05;;;;;;;5.40;1.50;;;;;;;;;;4968318;28;99948;-69
2023/08/13 07:57:32;;;;;;;5.40;1.50;;;;;;;;;;4969085;28;98219;-69
2023/08/13 07:59:58;;;;;;;4.70;1.58;;;;;;;;;;4968557;28;99551;-69
2023/08/13 08:02:25;;;;;;;3.88;1.63;;;;;;;;;;4986539;28;99275;-70
2023/08/13 08:04:51;;;;;;;5.82;1.33;;;;;;;;;;4988786;28;98378;-71
2023/08/13 08:07:18;;;;;;;6.72;2.25;;;;;;;;;;4973045;28;99255;-71
2023/08/13 08:09:45;;;;;;;4.90;1.48;;;;;;;;;;4967815;28;98104;-71
2023/08/13 08:12:11;;;;;;;3.08;1.15;;;;;;;;;;4969862;28;98657;-72
2023/08/13 08:14:38;;;;;;;7.03;1.77;;;;;;;;;;4972978;28;98952;-70
2023/08/13 08:17:07;;;;;;;5.40;1.98;;;;;;;;;;4973359;28;98523;-70
2023/08/13 08:19:33;;;;;;;3.55;1.55;;;;;;;;;;4971661;28;101038;-70
2023/08/13 08:22:00;;;;;;;4.13;1.45;;;;;;;;;;4973507;28;100419;-71
2023/08/13 08:24:26;;;;;;;3.65;1.35;;;;;;;;;;4991612;28;98775;-69
2023/08/13 08:26:52;;;;;;;4.05;1.50;;;;;;;;;;4992208;28;99042;-70
2023/08/13 08:29:19;;;;;;;3.17;1.08;;;;;;;;;;4990038;28;98252;-71
2023/08/13 08:31:45;;;;;;;6.57;1.38;;;;;;;;;;4990777;28;99572;-71
2023/08/13 08:34:12;;;;;;;4.20;0.95;;;;;;;;;;4990857;28;98991;-71
2023/08/13 08:36:38;;;;;;;3.47;1.45;;;;;;;;;;4990305;28;98426;-72
2023/08/13 08:39:04;;;;;;;4.18;1.08;;;;;;;;;;4990440;28;98398;-71
2023/08/13 08:41:31;;;;;;;2.15;1.20;;;;;;;;;;4990603;28;98989;-71
2023/08/13 08:43:58;;;;;;;4.70;1.48;;;;;;;;;;4991418;28;97947;-71
2023/08/13 08:46:28;;;;;;;2.08;1.15;;;;;;;;;;4993201;28;98764;-70
2023/08/13 08:48:57;;;;;;;2.42;1.02;;;;;;;;;;4991467;28;98229;-71
2023/08/13 08:51:24;;;;;;;3.30;1.20;;;;;;;;;;4990546;28;98407;-71
2023/08/13 08:53:51;;;;;;;4.22;1.35;;;;;;;;;;4989491;28;100019;-70
2023/08/13 08:56:17;;;;;;;3.35;1.08;;;;;;;;;;4991527;28;98261;-71
2023/08/13 08:58:44;;;;;;;4.82;1.30;;;;;;;;;;4989585;28;98429;-71
2023/08/13 09:01:10;;;;;;;3.03;0.90;;;;;;;;;;4991253;28;98958;-70
2023/08/13 09:03:37;;;;;;;2.58;1.48;;;;;;;;;;4991670;28;98220;-71
2023/08/13 09:06:03;;;;;;;2.63;1.08;;;;;;;;;;4976414;28;98773;-71
2023/08/13 09:08:46;;;;;;;10.00;1.60;;;;;;;;;;4991932;28;100911;-70
2023/08/13 09:11:13;;;;;;;3.38;1.33;;;;;;;;;;4986104;28;98668;-69
2023/08/13 09:13:48;;;;;;;2.78;1.30;;;;;;;;;;4970965;28;98971;-70
2023/08/13 09:16:15;;;;;;;4.57;1.30;;;;;;;;;;4971198;28;99298;-71
2023/08/13 09:18:42;;;;;;;3.90;1.15;;;;;;;;;;4980703;28;99108;-71
2023/08/13 09:21:08;;;;;;;4.93;1.42;;;;;;;;;;4984282;28;98987;-71
2023/08/13 09:23:37;;;;;;;5.85;1.70;;;;;;;;;;4970609;28;98318;-70
2023/08/13 09:26:05;;;;;;;7.80;1.42;;;;;;;;;;4977565;28;98713;-70
2023/08/13 09:28:32;;;;;;;5.57;1.60;;;;;;;;;;4982060;28;99132;-70
2023/08/13 09:30:58;;;;;;;4.30;1.40;;;;;;;;;;4976611;28;98014;-70
2023/08/13 09:33:26;;;;;;;5.78;1.83;;;;;;;;;;4985479;28;99150;-70
2023/08/13 09:35:52;;;;;;;12.18;2.22;;;;;;;;;;4970234;28;97996;-70
2023/08/13 09:38:19;;;;;;;7.57;2.13;;;;;;;;;;4970270;28;99416;-71
2023/08/13 09:40:47;;;;;;;7.47;2.03;;;;;;;;;;4976327;28;98840;-71
2023/08/13 09:43:16;;;;;;;8.57;2.00;;;;;;;;;;4990446;28;98195;-71
2023/08/13 09:45:43;;;;;;;6.93;1.60;;;;;;;;;;4990545;28;98513;-70
2023/08/13 09:48:10;;;;;;;4.38;1.55;;;;;;;;;;4989686;28;99053;-69
2023/08/13 09:50:40;;;;;;;12.40;3.60;;;;;;;;;;4982201;28;98260;-71
2023/08/13 09:53:08;;;;;;;8.13;1.77;;;;;;;;;;4970856;28;100206;-69
2023/08/13 09:55:43;;;;;;;5.88;1.70;;;;;;;;;;4969609;28;98194;-70
2023/08/13 09:58:11;;;;;;;8.32;1.65;;;;;;;;;;4971023;28;98672;-70
2023/08/13 10:00:38;;;;;;;4.95;1.92;;;;;;;;;;4970449;28;100088;-70
2023/08/13 10:03:04;;;;;;;7.70;2.55;;;;;;;;;;4970159;28;98227;-70
2023/08/13 10:05:32;;;;;;;8.55;2.72;;;;;;;;;;4970910;28;98811;-71
2023/08/13 10:07:59;;;;;;;12.63;2.33;;;;;;;;;;4970673;28;99101;-70
2023/08/13 10:10:26;;;;;;;7.43;2.70;;;;;;;;;;4969949;28;98244;-70
2023/08/13 10:12:52;;;;;;;9.68;2.10;;;;;;;;;;4982484;28;98697;-70
2023/08/13 10:15:20;;;;;;;5.35;1.70;;;;;;;;;;4990018;28;98247;-70
2023/08/13 10:17:46;;;;;;;10.55;2.10;;;;;;;;;;4972280;28;98696;-71
2023/08/13 10:20:13;;;;;;;7.18;2.20;;;;;;;;;;4969047;28;99127;-70
2023/08/13 10:22:40;;;;;;;6.03;2.00;;;;;;;;;;4971321;28;98260;-71
2023/08/13 10:25:07;;;;;;;7.18;2.47;;;;;;;;;;4982273;28;99136;-71
2023/08/13 10:27:35;;;;;;;10.75;2.45;;;;;;;;;;4969617;28;100079;-71
2023/08/13 10:30:12;;;;;;;9.43;2.53;;;;;;;;;;4984254;28;98443;-70
2023/08/13 10:32:50;;;;;;;13.05;2.55;;;;;;;;;;4989656;28;98813;-70
2023/08/13 10:35:39;;;;;;;8.77;2.22;;;;;;;;;;4992227;28;98840;-70
2023/08/13 10:38:07;;;;;;;4.72;1.77;;;;;;;;;;4989449;28;98840;-70
2023/08/13 10:40:55;;;;;;;6.60;1.98;;;;;;;;;;4989609;28;99081;-69
2023/08/13 10:43:22;;;;;;;7.40;2.78;;;;;;;;;;4989125;28;98252;-70
2023/08/13 10:45:48;;;;;;;9.35;1.60;;;;;;;;;;4988139;28;98526;-70
2023/08/13 10:48:24;;;;;;;5.85;1.67;;;;;;;;;;4978220;28;100228;-70
2023/08/13 10:50:53;;;;;;;9.63;2.35;;;;;;;;;;4980945;28;98294;-71
2023/08/13 10:53:22;;;;;;;8.68;1.95;;;;;;;;;;4980259;28;98780;-71
2023/08/13 10:55:52;;;;;;;7.05;1.80;;;;;;;;;;4971231;27;99040;-70
2023/08/13 10:58:28;;;;;;;7.57;2.20;;;;;;;;;;4972382;28;98096;-70
2023/08/13 11:00:59;;;;;;;5.10;2.17;;;;;;;;;;4969640;28;99517;-70
2023/08/13 11:03:28;;;;;;;12.23;2.15;;;;;;;;;;4970173;28;98184;-70
2023/08/13 11:05:54;;;;;;;15.25;1.98;;;;;;;;;;4974284;28;98877;-70
2023/08/13 11:08:22;;;;;;;8.63;2.00;;;;;;;;;;4978486;28;99480;-70
2023/08/13 11:11:07;;;;;;;10.20;3.05;;;;;;;;;;4968738;28;98240;-69
2023/08/13 11:13:33;;;;;;;11.18;2.72;;;;;;;;;;4968451;28;99787;-71
2023/08/13 11:16:01;;;;;;;9.25;2.45;;;;;;;;;;4969297;28;99049;-70
2023/08/13 11:18:28;;;;;;;5.65;2.05;;;;;;;;;;4969364;28;98327;-69
2023/08/13 11:20:54;;;;;;;10.88;2.42;;;;;;;;;;4971594;28;98623;-71
2023/08/13 11:23:21;;;;;;;9.13;2.10;;;;;;;;;;4970940;28;98214;-70
2023/08/13 11:25:49;;;;;;;8.63;2.10;;;;;;;;;;4969063;28;98980;-69
2023/08/13 11:28:20;;;;;;;11.02;2.67;;;;;;;;;;4974461;28;100449;-71
2023/08/13 11:30:47;;;;;;;6.22;1.80;;;;;;;;;;4989278;28;98261;-71
2023/08/13 11:33:14;;;;;;;3.90;2.10;;;;;;;;;;4978141;28;98954;-70
2023/08/13 11:35:41;;;;;;;6.32;1.98;;;;;;;;;;4976177;28;99929;-70
2023/08/13 11:38:07;;;;;;;9.13;2.05;;;;;;;;;;4968723;28;98228;-70
2023/08/13 11:40:34;;;;;;;5.10;2.30;;;;;;;;;;4986232;28;98584;-70
2023/08/13 11:43:01;;;;;;;4.70;1.95;;;;;;;;;;4987878;28;98061;-70
2023/08/13 11:45:30;;;;;;;9.57;2.55;;;;;;;;;;4968444;28;98499;-69
2023/08/13 11:48:16;;;;;;;7.38;2.25;;;;;;;;;;4967533;28;99176;-70
2023/08/13 11:50:47;;;;;;;4.93;1.77;;;;;;;;;;4979028;28;98329;-70
2023/08/13 11:53:15;;;;;;;4.75;1.45;;;;;;;;;;4978751;28;98163;-71
2023/08/13 11:55:42;;;;;;;9.52;2.92;;;;;;;;;;4968777;28;98916;-69
2023/08/13 11:58:08;;;;;;;8.23;2.15;;;;;;;;;;4969319;28;98223;-71
2023/08/13 12:00:36;;;;;;;5.25;1.80;;;;;;;;;;4968480;28;98593;-70
2023/08/13 12:03:03;;;;;;;17.25;2.72;;;;;;;;;;4970619;28;99104;-71
2023/08/13 12:05:30;;;;;;;7.15;1.70;;;;;;;;;;4977285;28;98526;-70
2023/08/13 12:07:58;;;;;;;4.70;1.80;;;;;;;;;;4969463;28;99948;-70
2023/08/13 12:10:25;;;;;;;5.35;2.05;;;;;;;;;;4973283;28;98320;-69
2023/08/13 12:12:52;;;;;;;10.85;2.63;;;;;;;;;;4988565;28;98745;-71
2023/08/13 12:15:23;;;;;;;6.65;2.00;;;;;;;;;;4987069;28;99886;-70
2023/08/13 12:17:53;;;;;;;5.30;1.92;;;;;;;;;;4969174;28;98167;-70
2023/08/13 12:20:19;;;;;;;6.38;1.55;;;;;;;;;;4968610;28;98500;-70
2023/08/13 12:22:46;;;;;;;6.63;1.85;;;;;;;;;;4970691;28;98986;-69
2023/08/13 12:25:12;;;;;;;6.35;1.80;;;;;;;;;;4975944;28;99799;-70
2023/08/13 12:27:39;;;;;;;4.75;1.73;;;;;;;;;;4973313;28;99712;-70
2023/08/13 12:30:06;;;;;;;8.02;2.40;;;;;;;;;;4967038;28;98299;-69
2023/08/13 12:32:32;;;;;;;5.80;2.20;;;;;;;;;;4970422;28;98471;-69
2023/08/13 12:34:58;;;;;;;6.53;1.95;;;;;;;;;;4969806;28;100097;-70
2023/08/13 12:37:25;;;;;;;5.00;2.25;;;;;;;;;;4972986;28;98572;-70
2023/08/13 12:39:51;;;;;;;8.20;2.05;;;;;;;;;;4970532;28;99432;-70
2023/08/13 12:42:19;;;;;;;8.82;2.55;;;;;;;;;;4972499;28;98987;-70
2023/08/13 12:44:46;;;;;;;7.05;2.17;;;;;;;;;;4969670;28;98955;-69
2023/08/13 12:47:12;;;;;;;6.03;2.40;;;;;;;;;;4974038;28;99462;-70
2023/08/13 12:49:39;;;;;;;6.78;2.00;;;;;;;;;;4968502;28;100353;-70
2023/08/13 12:52:05;;;;;;;9.93;1.88;;;;;;;;;;4973747;28;98805;-70
2023/08/13 12:54:32;;;;;;;9.25;2.33;;;;;;;;;;4971146;28;99901;-69
2023/08/13 12:56:58;;;;;;;8.77;2.10;;;;;;;;;;4968311;28;99900;-71
2023/08/13 12:59:24;;;;;;;5.30;1.80;;;;;;;;;;4977913;28;99212;-71
2023/08/13 13:01:51;;;;;;;7.20;1.90;;;;;;;;;;4973710;28;100249;-70
2023/08/13 13:04:17;;;;;;;10.45;1.80;;;;;;;;;;4973934;28;98900;-70
2023/08/13 13:06:44;;;;;;;5.57;2.00;;;;;;;;;;4975713;28;98806;-70
2023/08/13 13:09:10;;;;;;;4.20;2.17;;;;;;;;;;4978103;28;98992;-70
2023/08/13 13:11:37;;;;;;;5.45;2.25;;;;;;;;;;4981631;28;98955;-70
2023/08/13 13:14:03;;;;;;;5.28;2.13;;;;;;;;;;4976310;28;99450;-71
2023/08/13 13:16:30;;;;;;;10.55;1.98;;;;;;;;;;4969852;28;99420;-71
2023/08/13 13:18:56;;;;;;;8.77;1.88;;;;;;;;;;4972941;28;98752;-69
2023/08/13 13:21:23;;;;;;;4.82;2.38;;;;;;;;;;4980931;28;100201;-72
2023/08/13 13:23:51;;;;;;;7.97;1.90;;;;;;;;;;4973711;28;98546;-69
2023/08/13 13:26:17;;;;;;;9.10;2.63;;;;;;;;;;4972077;28;99366;-70
2023/08/13 13:28:44;;;;;;;8.07;2.22;;;;;;;;;;4976320;28;100133;-71
2023/08/13 13:31:11;;;;;;;8.68;2.28;;;;;;;;;;4976742;28;100536;-70
2023/08/13 13:33:38;;;;;;;6.93;2.72;;;;;;;;;;4969484;28;100384;-69
2023/08/13 13:36:07;;;;;;;6.80;2.10;;;;;;;;;;4971215;28;99869;-71
2023/08/13 13:38:34;;;;;;;8.52;2.33;;;;;;;;;;4972146;28;98993;-69
2023/08/13 13:41:01;;;;;;;10.98;2.22;;;;;;;;;;4967311;28;99133;-69
2023/08/13 13:43:27;;;;;;;11.38;2.63;;;;;;;;;;4971301;28;98336;-70
2023/08/13 13:45:54;;;;;;;5.93;1.75;;;;;;;;;;4971762;28;100457;-70
2023/08/13 13:48:20;;;;;;;8.35;2.63;;;;;;;;;;4972609;28;99990;-69
2023/08/13 13:50:47;;;;;;;13.68;2.45;;;;;;;;;;4977064;28;100678;-69
2023/08/13 13:53:13;;;;;;;6.03;2.35;;;;;;;;;;4974709;28;99608;-69
2023/08/13 13:55:46;;;;;;;7.25;2.22;;;;;;;;;;4973026;28;98279;-69
2023/08/13 13:58:12;;;;;;;7.40;1.80;;;;;;;;;;4974807;28;99201;-71
2023/08/13 14:00:38;;;;;;;6.97;1.95;;;;;;;;;;4973795;28;99932;-70
2023/08/13 14:03:05;;;;;;;5.93;2.85;;;;;;;;;;4969825;28;98828;-70
2023/08/13 14:05:32;;;;;;;7.03;2.10;;;;;;;;;;4968503;28;99493;-71
2023/08/13 14:07:58;;;;;;;7.85;2.60;;;;;;;;;;4973739;28;99963;-70
2023/08/13 14:10:25;;;;;;;7.57;2.38;;;;;;;;;;4985029;28;98743;-69
2023/08/13 14:12:51;;;;;;;8.55;2.20;;;;;;;;;;4981780;28;99599;-71
2023/08/13 14:15:18;;;;;;;10.05;2.45;;;;;;;;;;4989094;28;98746;-70
2023/08/13 14:17:44;;;;;;;5.22;1.90;;;;;;;;;;4981767;28;99028;-70
2023/08/13 14:20:12;;;;;;;6.40;2.63;;;;;;;;;;4980280;28;98895;-71
2023/08/13 14:22:38;;;;;;;12.07;2.50;;;;;;;;;;4978392;28;98212;-69
2023/08/13 14:25:05;;;;;;;4.60;2.05;;;;;;;;;;4987921;28;98563;-70
2023/08/13 14:27:31;;;;;;;5.90;2.78;;;;;;;;;;4988820;28;98896;-71
2023/08/13 14:29:58;;;;;;;7.97;2.05;;;;;;;;;;4989786;28;98424;-70
2023/08/13 14:32:25;;;;;;;12.15;2.70;;;;;;;;;;4989941;28;99430;-69
2023/08/13 14:34:51;;;;;;;14.13;2.83;;;;;;;;;;4993339;28;99201;-71
2023/08/13 14:37:18;;;;;;;10.07;2.58;;;;;;;;;;4982317;28;98987;-71
2023/08/13 14:39:44;;;;;;;10.50;2.40;;;;;;;;;;4981307;28;100122;-70